sensor_id;sensor_type;location;lat;lon;timestamp;P1;durP1;ratioP1;P2;durP2;ratioP2
16967;SDS011;64862;54.398;10.126;2024-02-21T00:04:17;53.08;;;16.75;;
16967;SDS011;64862;54.398;10.126;2024-02-21T00:14:21;47.25;;;15.57;;
16967;SDS011;64862;54.398;10.126;2024-02-21T00:24:23;57.28;;;16.70;;
16967;SDS011;64862;54.398;10.126;2024-02-21T00:34:26;55.58;;;17.00;;
16967;SDS011;64862;54.398;10.126;2024-02-21T00:44:28;48.72;;;15.35;;
16967;SDS011;64862;54.398;10.126;2024-02-21T00:54:32;47.22;;;16.05;;
16967;SDS011;64862;54.398;10.126;2024-02-21T01:04:34;46.78;;;15.88;;
16967;SDS011;64862;54.398;10.126;2024-02-21T01:14:38;46.67;;;17.05;;
16967;SDS011;64862;54.398;10.126;2024-02-21T01:24:40;41.90;;;16.83;;
16967;SDS011;64862;54.398;10.126;2024-02-21T01:34:43;34.28;;;14.38;;
16967;SDS011;64862;54.398;10.126;2024-02-21T01:44:45;28.48;;;13.27;;
16967;SDS011;64862;54.398;10.126;2024-02-21T01:54:49;24.10;;;11.50;;
16967;SDS011;64862;54.398;10.126;2024-02-21T02:04:51;22.17;;;11.27;;
16967;SDS011;64862;54.398;10.126;2024-02-21T02:14:59;24.63;;;11.80;;
16967;SDS011;64862;54.398;10.126;2024-02-21T02:25:03;21.38;;;11.88;;
16967;SDS011;64862;54.398;10.126;2024-02-21T02:35:06;26.77;;;13.93;;
16967;SDS011;64862;54.398;10.126;2024-02-21T02:45:10;24.58;;;12.18;;
16967;SDS011;64862;54.398;10.126;2024-02-21T02:55:12;18.58;;;9.52;;
16967;SDS011;64862;54.398;10.126;2024-02-21T03:05:16;17.48;;;7.70;;
16967;SDS011;64862;54.398;10.126;2024-02-21T03:15:20;11.00;;;5.88;;
16967;SDS011;64862;54.398;10.126;2024-02-21T03:25:24;11.25;;;5.30;;
16967;SDS011;64862;54.398;10.126;2024-02-21T03:35:26;7.85;;;3.00;;
16967;SDS011;64862;54.398;10.126;2024-02-21T03:45:30;6.13;;;2.00;;
16967;SDS011;64862;54.398;10.126;2024-02-21T03:55:31;8.82;;;1.67;;
16967;SDS011;64862;54.398;10.126;2024-02-21T04:05:35;10.48;;;2.63;;
16967;SDS011;64862;54.398;10.126;2024-02-21T04:15:37;13.65;;;3.10;;
16967;SDS011;64862;54.398;10.126;2024-02-21T04:25:41;20.77;;;4.10;;
16967;SDS011;64862;54.398;10.126;2024-02-21T04:35:43;27.77;;;4.82;;
16967;SDS011;64862;54.398;10.126;2024-02-21T04:45:46;27.35;;;5.03;;
16967;SDS011;64862;54.398;10.126;2024-02-21T04:55:49;36.03;;;4.68;;
16967;SDS011;64862;54.398;10.126;2024-02-21T05:05:52;37.53;;;5.00;;
16967;SDS011;64862;54.398;10.126;2024-02-21T05:15:54;36.50;;;4.75;;
16967;SDS011;64862;54.398;10.126;2024-02-21T05:25:57;39.70;;;4.57;;
16967;SDS011;64862;54.398;10.126;2024-02-21T05:35:59;37.55;;;5.25;;
16967;SDS011;64862;54.398;10.126;2024-02-21T05:46:04;35.50;;;3.92;;
16967;SDS011;64862;54.398;10.126;2024-02-21T05:56:09;32.05;;;4.22;;
16967;SDS011;64862;54.398;10.126;2024-02-21T06:06:13;38.58;;;4.60;;
16967;SDS011;64862;54.398;10.126;2024-02-21T06:16:15;35.67;;;4.50;;
16967;SDS011;64862;54.398;10.126;2024-02-21T06:26:19;34.65;;;4.13;;
16967;SDS011;64862;54.398;10.126;2024-02-21T06:36:21;31.25;;;4.60;;
16967;SDS011;64862;54.398;10.126;2024-02-21T06:46:25;37.03;;;4.50;;
16967;SDS011;64862;54.398;10.126;2024-02-21T06:56:28;30.80;;;4.07;;
16967;SDS011;64862;54.398;10.126;2024-02-21T07:06:32;28.98;;;4.50;;
16967;SDS011;64862;54.398;10.126;2024-02-21T07:16:34;32.40;;;4.15;;
16967;SDS011;64862;54.398;10.126;2024-02-21T07:26:40;36.42;;;3.88;;
16967;SDS011;64862;54.398;10.126;2024-02-21T07:36:43;33.05;;;4.43;;
16967;SDS011;64862;54.398;10.126;2024-02-21T07:46:47;34.67;;;4.93;;
16967;SDS011;64862;54.398;10.126;2024-02-21T07:56:49;32.58;;;4.28;;
16967;SDS011;64862;54.398;10.126;2024-02-21T08:06:53;37.92;;;4.68;;
16967;SDS011;64862;54.398;10.126;2024-02-21T08:16:55;37.10;;;4.65;;
16967;SDS011;64862;54.398;10.126;2024-02-21T08:26:59;39.05;;;4.30;;
16967;SDS011;64862;54.398;10.126;2024-02-21T08:37:01;31.98;;;4.20;;
16967;SDS011;64862;54.398;10.126;2024-02-21T08:47:04;38.50;;;4.70;;
16967;SDS011;64862;54.398;10.126;2024-02-21T08:57:08;35.75;;;4.30;;
16967;SDS011;64862;54.398;10.126;2024-02-21T09:07:11;36.78;;;4.03;;
16967;SDS011;64862;54.398;10.126;2024-02-21T09:17:13;36.85;;;4.93;;
16967;SDS011;64862;54.398;10.126;2024-02-21T09:27:19;32.03;;;3.50;;
16967;SDS011;64862;54.398;10.126;2024-02-21T09:37:21;29.45;;;4.35;;
16967;SDS011;64862;54.398;10.126;2024-02-21T09:47:28;33.33;;;3.97;;
16967;SDS011;64862;54.398;10.126;2024-02-21T09:57:39;30.13;;;3.60;;
16967;SDS011;64862;54.398;10.126;2024-02-21T10:07:43;37.03;;;4.43;;
16967;SDS011;64862;54.398;10.126;2024-02-21T10:17:45;28.95;;;3.80;;
16967;SDS011;64862;54.398;10.126;2024-02-21T10:27:49;27.17;;;3.60;;
16967;SDS011;64862;54.398;10.126;2024-02-21T10:37:51;22.27;;;3.00;;
16967;SDS011;64862;54.398;10.126;2024-02-21T10:47:59;27.95;;;3.63;;
16967;SDS011;64862;54.398;10.126;2024-02-21T10:58:08;23.58;;;3.90;;
16967;SDS011;64862;54.398;10.126;2024-02-21T11:08:13;29.27;;;3.13;;
16967;SDS011;64862;54.398;10.126;2024-02-21T11:18:22;23.60;;;3.15;;
16967;SDS011;64862;54.398;10.126;2024-02-21T11:28:26;25.50;;;3.28;;
16967;SDS011;64862;54.398;10.126;2024-02-21T11:38:28;20.83;;;2.58;;
16967;SDS011;64862;54.398;10.126;2024-02-21T11:48:32;22.80;;;2.80;;
16967;SDS011;64862;54.398;10.126;2024-02-21T11:58:35;21.95;;;3.03;;
16967;SDS011;64862;54.398;10.126;2024-02-21T12:08:42;19.95;;;3.10;;
16967;SDS011;64862;54.398;10.126;2024-02-21T12:18:44;19.57;;;3.57;;
16967;SDS011;64862;54.398;10.126;2024-02-21T12:28:48;16.08;;;3.05;;
16967;SDS011;64862;54.398;10.126;2024-02-21T12:38:50;24.67;;;3.53;;
16967;SDS011;64862;54.398;10.126;2024-02-21T12:48:54;20.83;;;2.95;;
16967;SDS011;64862;54.398;10.126;2024-02-21T12:58:58;13.52;;;3.03;;
16967;SDS011;64862;54.398;10.126;2024-02-21T13:09:01;11.80;;;3.17;;
16967;SDS011;64862;54.398;10.126;2024-02-21T13:19:07;10.43;;;2.80;;
16967;SDS011;64862;54.398;10.126;2024-02-21T13:29:11;8.20;;;3.17;;
16967;SDS011;64862;54.398;10.126;2024-02-21T13:39:13;9.35;;;3.35;;
16967;SDS011;64862;54.398;10.126;2024-02-21T13:49:17;8.80;;;4.75;;
16967;SDS011;64862;54.398;10.126;2024-02-21T13:59:19;10.35;;;5.03;;
16967;SDS011;64862;54.398;10.126;2024-02-21T14:09:23;15.25;;;7.65;;
16967;SDS011;64862;54.398;10.126;2024-02-21T14:19:25;15.52;;;8.27;;
16967;SDS011;64862;54.398;10.126;2024-02-21T14:29:28;16.48;;;9.05;;
16967;SDS011;64862;54.398;10.126;2024-02-21T14:39:30;17.15;;;9.35;;
16967;SDS011;64862;54.398;10.126;2024-02-21T14:49:36;16.52;;;8.93;;
16967;SDS011;64862;54.398;10.126;2024-02-21T14:59:38;20.48;;;11.88;;
16967;SDS011;64862;54.398;10.126;2024-02-21T15:09:43;19.08;;;10.90;;
16967;SDS011;64862;54.398;10.126;2024-02-21T15:19:45;24.65;;;12.43;;
16967;SDS011;64862;54.398;10.126;2024-02-21T15:29:51;31.70;;;14.77;;
16967;SDS011;64862;54.398;10.126;2024-02-21T15:39:53;29.23;;;14.82;;
16967;SDS011;64862;54.398;10.126;2024-02-21T15:49:57;24.10;;;14.32;;
16967;SDS011;64862;54.398;10.126;2024-02-21T16:00:00;25.27;;;14.63;;
16967;SDS011;64862;54.398;10.126;2024-02-21T16:10:12;28.48;;;14.40;;
16967;SDS011;64862;54.398;10.126;2024-02-21T16:20:14;29.70;;;14.85;;
16967;SDS011;64862;54.398;10.126;2024-02-21T16:30:18;27.63;;;16.02;;
16967;SDS011;64862;54.398;10.126;2024-02-21T16:40:20;33.42;;;17.02;;
16967;SDS011;64862;54.398;10.126;2024-02-21T16:50:23;30.70;;;18.10;;
16967;SDS011;64862;54.398;10.126;2024-02-21T17:00:25;29.15;;;16.65;;
16967;SDS011;64862;54.398;10.126;2024-02-21T17:10:29;34.20;;;16.60;;
16967;SDS011;64862;54.398;10.126;2024-02-21T17:20:32;36.90;;;16.23;;
16967;SDS011;64862;54.398;10.126;2024-02-21T17:30:35;31.05;;;15.98;;
16967;SDS011;64862;54.398;10.126;2024-02-21T17:40:37;36.95;;;15.32;;
16967;SDS011;64862;54.398;10.126;2024-02-21T17:50:41;30.45;;;15.40;;
16967;SDS011;64862;54.398;10.126;2024-02-21T18:00:43;31.52;;;15.60;;
16967;SDS011;64862;54.398;10.126;2024-02-21T18:10:47;26.48;;;14.50;;
16967;SDS011;64862;54.398;10.126;2024-02-21T18:20:49;29.45;;;15.15;;
16967;SDS011;64862;54.398;10.126;2024-02-21T18:30:54;24.58;;;14.65;;
16967;SDS011;64862;54.398;10.126;2024-02-21T18:40:57;26.33;;;13.73;;
16967;SDS011;64862;54.398;10.126;2024-02-21T18:51:00;22.65;;;11.80;;
16967;SDS011;64862;54.398;10.126;2024-02-21T19:01:03;23.40;;;11.07;;
16967;SDS011;64862;54.398;10.126;2024-02-21T19:11:07;21.75;;;10.52;;
16967;SDS011;64862;54.398;10.126;2024-02-21T19:21:09;21.13;;;10.93;;
16967;SDS011;64862;54.398;10.126;2024-02-21T19:31:12;21.38;;;10.63;;
16967;SDS011;64862;54.398;10.126;2024-02-21T19:41:14;20.25;;;8.65;;
16967;SDS011;64862;54.398;10.126;2024-02-21T19:51:18;15.48;;;8.40;;
16967;SDS011;64862;54.398;10.126;2024-02-21T20:01:20;16.63;;;8.20;;
16967;SDS011;64862;54.398;10.126;2024-02-21T20:11:23;16.15;;;7.60;;
16967;SDS011;64862;54.398;10.126;2024-02-21T20:21:29;16.10;;;7.32;;
16967;SDS011;64862;54.398;10.126;2024-02-21T20:31:33;14.63;;;7.18;;
16967;SDS011;64862;54.398;10.126;2024-02-21T20:41:36;15.77;;;6.50;;
16967;SDS011;64862;54.398;10.126;2024-02-21T20:51:40;22.42;;;11.30;;
16967;SDS011;64862;54.398;10.126;2024-02-21T21:01:43;15.80;;;5.85;;
16967;SDS011;64862;54.398;10.126;2024-02-21T21:11:48;12.45;;;6.05;;
16967;SDS011;64862;54.398;10.126;2024-02-21T21:21:50;15.10;;;5.90;;
16967;SDS011;64862;54.398;10.126;2024-02-21T21:31:55;17.27;;;5.55;;
16967;SDS011;64862;54.398;10.126;2024-02-21T21:41:57;14.07;;;5.22;;
16967;SDS011;64862;54.398;10.126;2024-02-21T21:52:01;14.85;;;5.63;;
16967;SDS011;64862;54.398;10.126;2024-02-21T22:02:04;17.13;;;5.28;;
16967;SDS011;64862;54.398;10.126;2024-02-21T22:12:09;13.90;;;5.13;;
16967;SDS011;64862;54.398;10.126;2024-02-21T22:22:11;14.98;;;5.53;;
16967;SDS011;64862;54.398;10.126;2024-02-21T22:32:14;11.13;;;4.80;;
16967;SDS011;64862;54.398;10.126;2024-02-21T22:42:16;11.73;;;4.50;;
16967;SDS011;64862;54.398;10.126;2024-02-21T22:52:21;13.20;;;4.22;;
16967;SDS011;64862;54.398;10.126;2024-02-21T23:02:25;11.80;;;4.45;;
16967;SDS011;64862;54.398;10.126;2024-02-21T23:12:29;11.05;;;4.05;;
16967;SDS011;64862;54.398;10.126;2024-02-21T23:22:31;12.30;;;3.80;;
16967;SDS011;64862;54.398;10.126;2024-02-21T23:32:35;10.57;;;3.78;;
16967;SDS011;64862;54.398;10.126;2024-02-21T23:42:37;14.48;;;3.95;;
16967;SDS011;64862;54.398;10.126;2024-02-21T23:52:42;12.55;;;4.65;;
